Time;durP1;ratioP1;P1;durP2;ratioP2;P2;SDS_P1;SDS_P2;PMS_P1;PMS_P2;Temp;Humidity;BMP_temperature;BMP_pressure;BME280_temperature;BME280_humidity;BME280_pressure;Samples;Min_cycle;Max_cycle;Signal;HPM_P1;HPM_P2
2024/04/10 00:01:00;;;;;;;;;;;10.00;99.90;;;;;;5368427;26;19929;-82
2024/04/10 00:03:26;;;;;;;;;;;10.00;99.90;;;;;;5384015;26;19938;-84
2024/04/10 00:05:57;;;;;;;;;;;10.00;99.90;;;;;;5370729;26;19930;-85
2024/04/10 00:08:22;;;;;;;;;;;10.00;99.90;;;;;;5371134;26;20346;-85
2024/04/10 00:10:48;;;;;;;;;;;10.00;99.90;;;;;;5350241;26;19985;-84
2024/04/10 00:13:14;;;;;;;;;;;10.00;99.90;;;;;;5357386;26;19936;-83
2024/04/10 00:15:40;;;;;;;;;;;10.00;99.90;;;;;;5353043;26;19930;-83
2024/04/10 00:18:06;;;;;;;;;;;10.00;99.90;;;;;;5377788;26;20368;-83
2024/04/10 00:20:31;;;;;;;;;;;9.90;99.90;;;;;;5383819;26;19930;-86
2024/04/10 00:22:57;;;;;;;;;;;9.90;99.90;;;;;;5365382;26;19950;-84
2024/04/10 00:25:22;;;;;;;;;;;9.80;99.90;;;;;;5350173;26;19934;-83
2024/04/10 00:27:48;;;;;;;;;;;9.80;99.90;;;;;;5330306;26;20022;-84
2024/04/10 00:30:13;;;;;;;;;;;9.70;1.00;;;;;;5372327;26;20355;-84
2024/04/10 00:32:38;;;;;;;;;;;9.70;1.00;;;;;;5377028;26;19940;-84
2024/04/10 00:35:04;;;;;;;;;;;9.60;99.90;;;;;;5384276;26;19936;-85
2024/04/10 00:37:30;;;;;;;;;;;9.60;99.90;;;;;;5370637;26;19936;-86
2024/04/10 00:39:55;;;;;;;;;;;9.50;99.90;;;;;;5381953;26;20532;-83
2024/04/10 00:42:22;;;;;;;;;;;9.50;1.00;;;;;;5383145;26;20326;-85
2024/04/10 00:44:54;;;;;;;;;;;9.50;1.00;;;;;;5324375;26;19938;-84
2024/04/10 00:47:20;;;;;;;;;;;9.40;1.00;;;;;;5383963;26;19929;-84
2024/04/10 00:49:46;;;;;;;;;;;9.40;1.00;;;;;;5348981;26;19933;-84
2024/04/10 00:52:11;;;;;;;;;;;9.40;35.70;;;;;;5352257;26;19930;-82
2024/04/10 00:54:38;;;;;;;;;;;9.30;99.90;;;;;;5382091;26;19930;-83
2024/04/10 00:57:04;;;;;;;;;;;9.30;99.90;;;;;;5383603;26;19938;-82
2024/04/10 00:59:29;;;;;;;;;;;9.30;1.00;;;;;;5368198;26;19936;-84
2024/04/10 01:01:55;;;;;;;;;;;9.30;1.00;;;;;;5376355;26;19929;-82
2024/04/10 01:04:21;;;;;;;;;;;9.30;1.00;;;;;;5357420;26;20393;-83
2024/04/10 01:06:46;;;;;;;;;;;9.20;99.90;;;;;;5377572;26;20112;-83
2024/04/10 01:09:12;;;;;;;;;;;9.20;99.90;;;;;;5380028;26;20275;-83
2024/04/10 01:11:37;;;;;;;;;;;9.20;1.00;;;;;;5367233;26;20369;-83
2024/04/10 01:14:03;;;;;;;;;;;9.20;1.00;;;;;;5361543;26;19929;-85
2024/04/10 01:16:30;;;;;;;;;;;9.10;99.90;;;;;;5363060;26;20269;-84
2024/04/10 01:18:56;;;;;;;;;;;9.10;99.90;;;;;;5367008;26;19937;-84
2024/04/10 01:21:21;;;;;;;;;;;9.10;99.90;;;;;;5367593;26;19957;-84
2024/04/10 01:23:47;;;;;;;;;;;9.10;99.90;;;;;;5381782;26;19938;-84
2024/04/10 01:26:12;;;;;;;;;;;9.00;99.90;;;;;;5381044;26;20391;-84
2024/04/10 01:28:38;;;;;;;;;;;9.10;99.90;;;;;;5383704;26;19941;-85
2024/04/10 01:31:03;;;;;;;;;;;9.10;1.00;;;;;;5368006;26;19934;-86
2024/04/10 01:33:29;;;;;;;;;;;9.00;1.00;;;;;;5379468;26;20347;-86
2024/04/10 01:35:55;;;;;;;;;;;9.00;1.00;;;;;;5353123;26;19961;-86
2024/04/10 01:38:23;;;;;;;;;;;9.00;1.00;;;;;;5359101;26;19930;-84
2024/04/10 01:40:48;;;;;;;;;;;9.00;1.00;;;;;;5364867;26;19936;-84
2024/04/10 01:43:14;;;;;;;;;;;9.00;1.00;;;;;;5371232;26;19930;-84
2024/04/10 01:45:40;;;;;;;;;;;9.00;1.00;;;;;;5354266;26;19930;-85
2024/04/10 01:48:05;;;;;;;;;;;9.00;3.10;;;;;;5365688;26;19937;-85
2024/04/10 01:50:31;;;;;;;;;;;9.00;1.00;;;;;;5366903;26;19929;-83
2024/04/10 01:52:56;;;;;;;;;;;9.00;1.00;;;;;;5345836;26;19945;-83
2024/04/10 01:55:22;;;;;;;;;;;9.00;49.50;;;;;;5325203;26;19955;-82
2024/04/10 01:57:47;;;;;;;;;;;8.90;63.50;;;;;;5366064;26;19934;-83
2024/04/10 02:00:18;;;;;;;;;;;8.90;99.90;;;;;;5368550;26;19936;-83
2024/04/10 02:02:44;;;;;;;;;;;8.90;99.90;;;;;;5381819;26;19936;-86
2024/04/10 02:05:10;;;;;;;;;;;8.80;99.90;;;;;;5376065;26;19938;-84
2024/04/10 02:07:35;;;;;;;;;;;8.80;99.90;;;;;;5365170;26;19933;-84
2024/04/10 02:10:01;;;;;;;;;;;8.80;99.90;;;;;;5363740;26;19934;-84
2024/04/10 02:12:26;;;;;;;;;;;8.80;1.00;;;;;;5381196;26;20453;-84
2024/04/10 02:14:52;;;;;;;;;;;8.70;1.00;;;;;;5379025;26;19930;-83
2024/04/10 02:17:17;;;;;;;;;;;8.70;1.00;;;;;;5381534;26;19937;-83
2024/04/10 02:19:43;;;;;;;;;;;8.70;1.00;;;;;;5349020;26;20375;-83
2024/04/10 02:22:08;;;;;;;;;;;8.70;1.00;;;;;;5380194;26;19929;-83
2024/04/10 02:24:33;;;;;;;;;;;8.60;1.00;;;;;;5370046;26;20376;-84
2024/04/10 02:26:59;;;;;;;;;;;8.60;1.00;;;;;;5370362;26;19957;-84
2024/04/10 02:29:24;;;;;;;;;;;8.60;1.00;;;;;;5380275;26;19995;-84
2024/04/10 02:31:50;;;;;;;;;;;8.50;50.30;;;;;;5380335;26;19954;-84
2024/04/10 02:34:16;;;;;;;;;;;8.50;90.40;;;;;;5331821;26;19999;-84
2024/04/10 02:36:41;;;;;;;;;;;8.50;99.90;;;;;;5381933;26;19940;-84
2024/04/10 02:39:08;;;;;;;;;;;8.50;99.90;;;;;;5348912;26;20018;-83
2024/04/10 02:41:34;;;;;;;;;;;8.50;99.90;;;;;;5361362;26;20000;-85
2024/04/10 02:44:00;;;;;;;;;;;8.50;99.90;;;;;;5324892;26;19957;-85
2024/04/10 02:46:26;;;;;;;;;;;8.50;99.90;;;;;;5350969;26;19930;-85
2024/04/10 02:48:51;;;;;;;;;;;8.50;99.90;;;;;;5361434;26;19930;-84
2024/04/10 02:51:17;;;;;;;;;;;8.50;99.90;;;;;;5352750;26;19954;-84
2024/04/10 02:53:42;;;;;;;;;;;8.50;99.90;;;;;;5362883;26;19934;-85
2024/04/10 02:56:08;;;;;;;;;;;8.40;99.90;;;;;;5351491;26;19936;-86
2024/04/10 02:58:34;;;;;;;;;;;8.40;99.90;;;;;;5341055;26;19929;-85
2024/04/10 03:00:59;;;;;;;;;;;8.40;99.90;;;;;;5371229;26;20000;-83
2024/04/10 03:03:25;;;;;;;;;;;8.50;99.90;;;;;;5363476;26;19930;-84
2024/04/10 03:06:00;;;;;;;;;;;8.50;99.90;;;;;;5326884;26;20369;-82
2024/04/10 03:08:26;;;;;;;;;;;8.60;99.90;;;;;;5345462;26;19978;-84
2024/04/10 03:10:52;;;;;;;;;;;8.60;99.90;;;;;;5357677;26;19942;-84
2024/04/10 03:13:17;;;;;;;;;;;8.60;99.90;;;;;;5384358;26;19956;-84
2024/04/10 03:15:43;;;;;;;;;;;8.60;99.90;;;;;;5382361;26;19937;-84
2024/04/10 03:18:09;;;;;;;;;;;8.60;99.90;;;;;;5341168;26;19961;-83
2024/04/10 03:20:35;;;;;;;;;;;8.60;99.90;;;;;;5361241;26;20019;-85
2024/04/10 03:23:01;;;;;;;;;;;8.60;99.90;;;;;;5383237;26;19984;-84
2024/04/10 03:25:27;;;;;;;;;;;8.60;99.90;;;;;;5384975;26;20300;-84
2024/04/10 03:27:52;;;;;;;;;;;8.60;99.90;;;;;;5383780;26;19995;-84
2024/04/10 03:30:18;;;;;;;;;;;8.60;99.90;;;;;;5383855;26;19941;-83
2024/04/10 03:32:43;;;;;;;;;;;8.60;99.90;;;;;;5382982;26;20372;-83
2024/04/10 03:35:09;;;;;;;;;;;8.70;99.90;;;;;;5365040;26;19930;-83
2024/04/10 03:37:34;;;;;;;;;;;8.70;99.90;;;;;;5346664;26;19999;-83
2024/04/10 03:40:00;;;;;;;;;;;8.70;99.90;;;;;;5378759;26;19935;-85
2024/04/10 03:42:26;;;;;;;;;;;8.70;99.90;;;;;;5375803;26;19930;-83
2024/04/10 03:44:51;;;;;;;;;;;8.70;99.90;;;;;;5350125;26;19937;-85
2024/04/10 03:47:17;;;;;;;;;;;8.60;99.90;;;;;;5417985;21;19930;-83
2024/04/10 03:49:43;;;;;;;;;;;8.50;99.90;;;;;;5359635;26;19929;-81
2024/04/10 03:52:08;;;;;;;;;;;8.50;99.90;;;;;;5409419;26;19933;-81
2024/04/10 03:54:34;;;;;;;;;;;8.50;99.90;;;;;;5426319;26;19940;-82
2024/04/10 03:56:59;;;;;;;;;;;8.40;99.90;;;;;;5413142;26;19960;-82
2024/04/10 03:59:25;;;;;;;;;;;8.40;99.90;;;;;;5355975;26;19938;-83
2024/04/10 04:01:50;;;;;;;;;;;8.40;99.90;;;;;;5386454;26;19934;-83
2024/04/10 04:04:15;;;;;;;;;;;8.30;99.90;;;;;;5395211;26;19929;-80
2024/04/10 04:06:42;;;;;;;;;;;8.30;99.90;;;;;;5395309;26;19929;-83
2024/04/10 04:09:08;;;;;;;;;;;8.30;1.00;;;;;;5395185;26;19930;-84
2024/04/10 04:11:34;;;;;;;;;;;8.20;1.00;;;;;;5389859;26;19936;-81
2024/04/10 04:13:59;;;;;;;;;;;8.20;1.00;;;;;;5356713;26;19929;-81
2024/04/10 04:16:25;;;;;;;;;;;8.20;1.00;;;;;;5393264;26;19936;-84
2024/04/10 04:18:51;;;;;;;;;;;8.20;1.00;;;;;;5358782;26;19937;-81
2024/04/10 04:21:17;;;;;;;;;;;8.20;1.00;;;;;;5362716;26;19941;-83
2024/04/10 04:23:45;;;;;;;;;;;8.20;1.00;;;;;;5394408;26;19933;-82
2024/04/10 04:26:10;;;;;;;;;;;8.20;1.00;;;;;;5393282;26;20329;-83
2024/04/10 04:28:35;;;;;;;;;;;8.20;1.00;;;;;;5394004;26;19929;-81
2024/04/10 04:31:01;;;;;;;;;;;8.20;1.00;;;;;;5376287;26;19933;-81
2024/04/10 04:33:27;;;;;;;;;;;8.20;1.00;;;;;;5359787;26;19929;-82
2024/04/10 04:35:52;;;;;;;;;;;8.20;1.00;;;;;;5348172;26;19930;-82
2024/04/10 04:38:18;;;;;;;;;;;8.10;1.00;;;;;;5382945;26;19936;-82
2024/04/10 04:40:43;;;;;;;;;;;8.20;1.00;;;;;;5385500;26;19937;-82
2024/04/10 04:43:09;;;;;;;;;;;8.20;1.00;;;;;;5386518;26;19999;-81
2024/04/10 04:45:34;;;;;;;;;;;8.20;1.00;;;;;;5387813;26;19929;-82
2024/04/10 04:48:00;;;;;;;;;;;8.20;1.00;;;;;;5356226;26;19936;-82
2024/04/10 04:50:25;;;;;;;;;;;8.30;1.00;;;;;;5387628;26;19934;-81
2024/04/10 04:52:51;;;;;;;;;;;8.20;1.00;;;;;;5352783;26;19930;-82
2024/04/10 04:55:17;;;;;;;;;;;8.30;1.00;;;;;;5376258;26;19934;-81
2024/04/10 04:57:42;;;;;;;;;;;8.30;1.00;;;;;;5387769;26;20655;-82
2024/04/10 05:00:14;;;;;;;;;;;8.30;1.00;;;;;;5361100;26;19929;-81
2024/04/10 05:02:42;;;;;;;;;;;8.40;1.00;;;;;;5388431;26;20330;-82
2024/04/10 05:05:18;;;;;;;;;;;8.40;1.00;;;;;;5388946;26;20264;-82
2024/04/10 05:07:44;;;;;;;;;;;8.50;1.00;;;;;;5387140;26;20444;-81
2024/04/10 05:10:13;;;;;;;;;;;8.60;1.00;;;;;;5353666;26;19937;-82
2024/04/10 05:12:40;;;;;;;;;;;8.60;1.00;;;;;;5369289;26;19929;-81
2024/04/10 05:15:12;;;;;;;;;;;8.70;1.00;;;;;;5381918;26;20447;-82
2024/04/10 05:17:38;;;;;;;;;;;8.70;1.00;;;;;;5387506;26;19934;-82
2024/04/10 05:20:04;;;;;;;;;;;8.80;99.90;;;;;;5357417;26;19929;-83
2024/04/10 05:22:30;;;;;;;;;;;8.90;99.90;;;;;;5389071;26;20268;-82
2024/04/10 05:24:56;;;;;;;;;;;9.00;99.90;;;;;;5351573;26;19930;-82
2024/04/10 05:27:23;;;;;;;;;;;9.10;99.90;;;;;;5382615;26;19930;-82
2024/04/10 05:29:55;;;;;;;;;;;9.10;99.90;;;;;;5386772;26;19937;-82
2024/04/10 05:32:21;;;;;;;;;;;9.30;99.90;;;;;;5395640;26;19930;-83
2024/04/10 05:34:46;;;;;;;;;;;9.30;99.90;;;;;;5399823;26;19930;-83
2024/04/10 05:37:12;;;;;;;;;;;9.20;99.90;;;;;;5362758;26;19930;-84
2024/04/10 05:39:37;;;;;;;;;;;9.30;99.90;;;;;;5386088;26;19937;-83
2024/04/10 05:42:06;;;;;;;;;;;9.30;99.90;;;;;;5361693;26;19929;-83
2024/04/10 05:44:32;;;;;;;;;;;9.30;99.90;;;;;;5388737;26;19977;-82
2024/04/10 05:47:20;;;;;;;;;;;9.40;99.90;;;;;;5387048;26;19945;-82
2024/04/10 05:50:02;;;;;;;;;;;9.40;99.90;;;;;;5360669;26;19929;-82
2024/04/10 05:52:39;;;;;;;;;;;9.50;29.90;;;;;;5359115;26;19984;-82
2024/04/10 05:55:05;;;;;;;;;;;9.50;1.00;;;;;;5353638;26;19936;-83
2024/04/10 05:57:30;;;;;;;;;;;9.60;1.00;;;;;;5356272;26;19929;-82
2024/04/10 05:59:56;;;;;;;;;;;9.70;1.00;;;;;;5383308;26;19929;-82
2024/04/10 06:02:22;;;;;;;;;;;9.80;1.00;;;;;;5350359;26;20000;-82
2024/04/10 06:04:52;;;;;;;;;;;9.90;99.90;;;;;;5379377;26;19941;-83
2024/04/10 06:07:17;;;;;;;;;;;10.20;3.10;;;;;;5388505;26;19930;-82
2024/04/10 06:09:43;;;;;;;;;;;10.90;99.90;;;;;;5387287;26;20395;-83
2024/04/10 06:12:08;;;;;;;;;;;11.60;99.90;;;;;;5354003;26;19942;-83
2024/04/10 06:14:34;;;;;;;;;;;13.20;1.00;;;;;;5373896;26;19936;-82
2024/04/10 06:16:59;;;;;;;;;;;13.50;1.00;;;;;;5383699;26;19929;-83
2024/04/10 06:19:25;;;;;;;;;;;14.60;1.00;;;;;;5384990;26;19936;-83
2024/04/10 06:21:50;;;;;;;;;;;17.30;1.00;;;;;;5385688;26;19938;-83
2024/04/10 06:24:18;;;;;;;;;;;18.00;99.90;;;;;;5382665;26;19930;-83
2024/04/10 06:26:44;;;;;;;;;;;22.20;99.90;;;;;;5374948;26;20375;-84
2024/04/10 06:29:10;;;;;;;;;;;25.90;99.90;;;;;;5386466;26;19930;-84
2024/04/10 06:31:35;;;;;;;;;;;26.10;99.90;;;;;;5385975;26;19942;-83
2024/04/10 06:34:01;;;;;;;;;;;24.50;99.90;;;;;;5381589;26;19936;-83
2024/04/10 06:36:26;;;;;;;;;;;22.40;99.90;;;;;;5384511;26;19936;-84
2024/04/10 06:38:52;;;;;;;;;;;20.70;99.90;;;;;;5376562;26;19930;-83
2024/04/10 06:41:17;;;;;;;;;;;19.40;99.90;;;;;;5384666;26;19930;-82
2024/04/10 06:43:43;;;;;;;;;;;18.40;99.90;;;;;;5385572;26;19933;-83
2024/04/10 06:46:08;;;;;;;;;;;17.70;99.90;;;;;;5385443;26;19980;-82
2024/04/10 06:48:34;;;;;;;;;;;17.10;99.90;;;;;;5354286;26;20331;-82
2024/04/10 06:51:03;;;;;;;;;;;16.70;99.90;;;;;;5362138;26;19937;-81
2024/04/10 06:53:29;;;;;;;;;;;16.30;99.90;;;;;;5376943;26;19941;-82
2024/04/10 06:55:58;;;;;;;;;;;16.00;99.90;;;;;;5365880;26;19934;-82
2024/04/10 06:58:24;;;;;;;;;;;16.70;99.90;;;;;;5380614;26;19930;-83
2024/04/10 07:01:09;;;;;;;;;;;21.00;99.90;;;;;;5385013;26;20003;-85
2024/04/10 07:03:36;;;;;;;;;;;25.60;99.90;;;;;;5391133;26;20230;-84
2024/04/10 07:06:14;;;;;;;;;;;29.30;99.90;;;;;;5362439;26;19930;-85
2024/04/10 07:08:43;;;;;;;;;;;31.70;99.90;;;;;;5361456;26;19929;-84
2024/04/10 07:11:20;;;;;;;;;;;33.50;99.90;;;;;;5353831;26;19930;-83
2024/04/10 07:13:56;;;;;;;;;;;34.90;99.90;;;;;;5375155;26;19957;-85
2024/04/10 07:16:26;;;;;;;;;;;36.00;99.90;;;;;;5363883;26;19929;-85
2024/04/10 07:18:57;;;;;;;;;;;32.70;99.90;;;;;;5368158;26;19938;-86
2024/04/10 07:21:22;;;;;;;;;;;29.70;99.90;;;;;;5396699;26;19934;-85
2024/04/10 07:23:48;;;;;;;;;;;26.70;99.90;;;;;;5389208;26;19937;-86
2024/04/10 07:26:20;;;;;;;;;;;24.60;99.90;;;;;;5359859;26;19965;-84
2024/04/10 07:28:50;;;;;;;;;;;23.10;99.90;;;;;;5368675;26;19969;-85
2024/04/10 07:31:28;;;;;;;;;;;22.40;99.90;;;;;;5362198;26;19942;-84
2024/04/10 07:34:03;;;;;;;;;;;23.00;99.90;;;;;;5394395;26;19921;-83
2024/04/10 07:36:34;;;;;;;;;;;23.20;99.90;;;;;;5397433;26;19937;-85
2024/04/10 07:39:00;;;;;;;;;;;24.30;99.90;;;;;;5366202;26;19930;-85
2024/04/10 07:41:26;;;;;;;;;;;26.90;99.90;;;;;;5371042;26;19998;-86
2024/04/10 07:43:51;;;;;;;;;;;30.30;99.90;;;;;;5367706;26;19938;-86
2024/04/10 07:46:18;;;;;;;;;;;33.10;99.90;;;;;;5359784;26;19930;-85
2024/04/10 07:48:45;;;;;;;;;;;34.90;99.90;;;;;;5385681;26;19940;-84
2024/04/10 07:51:13;;;;;;;;;;;32.60;99.90;;;;;;5400441;26;19930;-86
2024/04/10 07:53:42;;;;;;;;;;;30.30;99.90;;;;;;5369116;26;19930;-84
2024/04/10 07:56:08;;;;;;;;;;;28.80;99.90;;;;;;5386073;26;19945;-84
2024/04/10 07:58:40;;;;;;;;;;;27.50;99.90;;;;;;5364048;26;19942;-84
2024/04/10 08:01:06;;;;;;;;;;;27.00;99.90;;;;;;5369508;26;19939;-84
2024/04/10 08:03:32;;;;;;;;;;;27.70;99.90;;;;;;5368704;26;19976;-84
2024/04/10 08:05:58;;;;;;;;;;;28.50;99.90;;;;;;5366466;26;19947;-84
2024/04/10 08:08:27;;;;;;;;;;;29.10;99.90;;;;;;5366864;26;19954;-84
2024/04/10 08:11:11;;;;;;;;;;;30.40;99.90;;;;;;5366123;26;19932;-85
2024/04/10 08:13:45;;;;;;;;;;;32.10;99.90;;;;;;5388395;26;19933;-85
2024/04/10 08:16:15;;;;;;;;;;;33.30;99.90;;;;;;5364727;26;19936;-85
2024/04/10 08:18:47;;;;;;;;;;;36.00;99.90;;;;;;5339396;26;19930;-85
2024/04/10 08:21:13;;;;;;;;;;;37.90;99.90;;;;;;5360039;26;19933;-84
2024/04/10 08:23:40;;;;;;;;;;;37.30;99.90;;;;;;5350079;26;19931;-85
2024/04/10 08:26:15;;;;;;;;;;;38.50;99.90;;;;;;5395350;26;19934;-84
2024/04/10 08:28:48;;;;;;;;;;;37.30;99.90;;;;;;5366468;26;20327;-85
2024/04/10 08:31:18;;;;;;;;;;;37.40;99.90;;;;;;5363362;26;19930;-84
2024/04/10 08:33:44;;;;;;;;;;;37.40;99.90;;;;;;5385415;26;19941;-85
2024/04/10 08:36:12;;;;;;;;;;;34.10;99.90;;;;;;5366346;26;19930;-84
2024/04/10 08:38:38;;;;;;;;;;;31.30;99.90;;;;;;5368731;26;19936;-85
2024/04/10 08:41:09;;;;;;;;;;;29.20;99.90;;;;;;5385987;26;19930;-85
2024/04/10 08:43:35;;;;;;;;;;;27.30;99.90;;;;;;5399632;26;19968;-85
2024/04/10 08:46:00;;;;;;;;;;;25.50;99.90;;;;;;5401703;26;19957;-85
2024/04/10 08:48:26;;;;;;;;;;;24.00;99.90;;;;;;5400820;26;19935;-84
2024/04/10 08:50:53;;;;;;;;;;;23.00;99.90;;;;;;5398533;26;19953;-83
2024/04/10 08:53:19;;;;;;;;;;;22.30;99.90;;;;;;5398311;26;19930;-84
2024/04/10 08:55:46;;;;;;;;;;;21.70;99.90;;;;;;5396899;26;19937;-84
2024/04/10 08:58:12;;;;;;;;;;;21.10;99.90;;;;;;5380386;26;19949;-84
2024/04/10 09:00:42;;;;;;;;;;;20.90;99.90;;;;;;5394763;26;19937;-85
2024/04/10 09:03:07;;;;;;;;;;;21.80;99.90;;;;;;5394975;26;19961;-85
2024/04/10 09:05:33;;;;;;;;;;;21.60;99.90;;;;;;5395382;26;19929;-85
2024/04/10 09:07:59;;;;;;;;;;;21.40;99.90;;;;;;5396665;26;20668;-84
2024/04/10 09:10:24;;;;;;;;;;;22.80;99.90;;;;;;5390506;26;19936;-84
2024/04/10 09:12:50;;;;;;;;;;;23.20;99.90;;;;;;5373491;26;19933;-84
2024/04/10 09:15:19;;;;;;;;;;;22.40;99.90;;;;;;5380711;26;19949;-84
2024/04/10 09:17:46;;;;;;;;;;;23.90;99.90;;;;;;5354689;26;19937;-84
2024/04/10 09:20:17;;;;;;;;;;;26.10;99.90;;;;;;5354166;26;20268;-83
2024/04/10 09:22:43;;;;;;;;;;;25.90;99.90;;;;;;5386540;26;20367;-84
2024/04/10 09:25:12;;;;;;;;;;;24.90;99.90;;;;;;5384566;26;19930;-84
2024/04/10 09:27:38;;;;;;;;;;;25.30;99.90;;;;;;5385924;26;19937;-82
2024/04/10 09:30:05;;;;;;;;;;;24.90;99.90;;;;;;5386804;26;19961;-84
2024/04/10 09:32:35;;;;;;;;;;;25.70;99.90;;;;;;5348556;26;19962;-83
2024/04/10 09:35:02;;;;;;;;;;;25.80;99.90;;;;;;5375360;26;19941;-84
2024/04/10 09:37:30;;;;;;;;;;;27.80;99.90;;;;;;5381747;26;19930;-84
2024/04/10 09:39:55;;;;;;;;;;;27.60;99.90;;;;;;5366284;26;19937;-84
2024/04/10 09:42:27;;;;;;;;;;;26.20;99.90;;;;;;5374197;26;19937;-83
2024/04/10 09:44:59;;;;;;;;;;;24.90;99.90;;;;;;5384016;26;19938;-83
2024/04/10 09:47:25;;;;;;;;;;;24.30;99.90;;;;;;5425975;21;19929;-80
2024/04/10 09:49:53;;;;;;;;;;;24.00;99.90;;;;;;5453424;26;19951;-83
2024/04/10 09:52:20;;;;;;;;;;;27.10;99.90;;;;;;5452427;26;19939;-83
2024/04/10 09:54:46;;;;;;;;;;;29.70;99.90;;;;;;5423969;26;19937;-82
2024/04/10 09:57:12;;;;;;;;;;;30.10;99.90;;;;;;5456529;26;19928;-84
2024/04/10 09:59:38;;;;;;;;;;;29.50;99.90;;;;;;5440961;26;19933;-84
2024/04/10 10:02:15;;;;;;;;;;;31.00;99.90;;;;;;5443925;26;19936;-84
2024/04/10 10:04:40;;;;;;;;;;;32.30;99.90;;;;;;5428704;26;19944;-84
2024/04/10 10:07:06;;;;;;;;;;;33.30;99.90;;;;;;5418484;26;20400;-85
2024/04/10 10:09:32;;;;;;;;;;;34.10;99.90;;;;;;5438470;26;19940;-84
2024/04/10 10:12:00;;;;;;;;;;;34.70;99.90;;;;;;5423352;26;19929;-86
2024/04/10 10:14:26;;;;;;;;;;;35.10;99.90;;;;;;5454261;26;20374;-86
2024/04/10 10:16:52;;;;;;;;;;;35.20;99.90;;;;;;5434422;26;19929;-84
2024/04/10 10:19:21;;;;;;;;;;;35.70;99.90;;;;;;5438124;26;20001;-85
2024/04/10 10:21:47;;;;;;;;;;;36.10;99.90;;;;;;5452771;26;20367;-85
2024/04/10 10:24:14;;;;;;;;;;;36.20;99.90;;;;;;5443289;26;19931;-86
2024/04/10 10:26:40;;;;;;;;;;;36.30;99.90;;;;;;5419495;26;19929;-84
2024/04/10 10:29:08;;;;;;;;;;;36.50;99.90;;;;;;5417770;26;19940;-85
2024/04/10 10:31:34;;;;;;;;;;;36.40;99.90;;;;;;5431817;26;20370;-86
2024/04/10 10:34:01;;;;;;;;;;;36.50;99.90;;;;;;5433508;26;20341;-85
2024/04/10 10:36:30;;;;;;;;;;;36.50;99.90;;;;;;5426416;26;19936;-85
2024/04/10 10:39:00;;;;;;;;;;;36.60;99.90;;;;;;5435173;26;19997;-86
2024/04/10 10:41:25;;;;;;;;;;;36.70;99.90;;;;;;5430751;26;19944;-85
2024/04/10 10:43:57;;;;;;;;;;;36.70;99.90;;;;;;5423725;26;19929;-85
2024/04/10 10:46:22;;;;;;;;;;;36.50;99.90;;;;;;5416264;26;19929;-86
2024/04/10 10:48:48;;;;;;;;;;;36.30;99.90;;;;;;5428459;26;20367;-85
2024/04/10 10:51:17;;;;;;;;;;;36.20;99.90;;;;;;5438770;26;19951;-86
2024/04/10 10:53:43;;;;;;;;;;;36.30;99.90;;;;;;5419948;26;19929;-85
2024/04/10 10:56:08;;;;;;;;;;;36.40;99.90;;;;;;5436134;26;19936;-85
2024/04/10 10:58:34;;;;;;;;;;;36.50;99.90;;;;;;5429555;26;19928;-85
2024/04/10 11:00:59;;;;;;;;;;;36.10;99.90;;;;;;5443670;26;19929;-85
2024/04/10 11:03:26;;;;;;;;;;;35.00;99.90;;;;;;5440939;26;19936;-85
2024/04/10 11:05:51;;;;;;;;;;;35.00;99.90;;;;;;5434101;26;19929;-85
2024/04/10 11:08:21;;;;;;;;;;;35.20;99.90;;;;;;5444334;26;20295;-85
2024/04/10 11:10:48;;;;;;;;;;;33.70;99.90;;;;;;5454265;26;19972;-85
2024/04/10 11:13:14;;;;;;;;;;;32.70;99.90;;;;;;5420057;26;19936;-85
2024/04/10 11:15:49;;;;;;;;;;;32.60;99.90;;;;;;5450197;26;19928;-83
2024/04/10 11:18:16;;;;;;;;;;;31.60;99.90;;;;;;5466607;26;19975;-84
2024/04/10 11:20:41;;;;;;;;;;;29.90;96.50;;;;;;5423415;26;19929;-84
2024/04/10 11:23:07;;;;;;;;;;;28.90;95.00;;;;;;5420907;26;19936;-85
2024/04/10 11:25:33;;;;;;;;;;;29.50;96.80;;;;;;5449439;26;19937;-85
2024/04/10 11:27:59;;;;;;;;;;;28.90;96.10;;;;;;5439665;26;19929;-85
2024/04/10 11:30:25;;;;;;;;;;;29.40;97.20;;;;;;5450515;26;19934;-83
2024/04/10 11:32:51;;;;;;;;;;;30.60;99.90;;;;;;5437429;26;19929;-86
2024/04/10 11:35:16;;;;;;;;;;;31.40;99.90;;;;;;5428817;26;19940;-84
2024/04/10 11:37:42;;;;;;;;;;;30.30;98.80;;;;;;5438420;26;19974;-84
2024/04/10 11:40:11;;;;;;;;;;;29.90;98.40;;;;;;5447214;26;20294;-84
2024/04/10 11:42:40;;;;;;;;;;;30.60;99.90;;;;;;5441782;26;19933;-84
2024/04/10 11:45:09;;;;;;;;;;;30.90;99.90;;;;;;5427001;26;19937;-84
2024/04/10 11:47:37;;;;;;;;;;;31.50;99.90;;;;;;5429916;26;20247;-84
2024/04/10 11:50:12;;;;;;;;;;;31.40;99.90;;;;;;5418302;26;19990;-85
2024/04/10 11:52:38;;;;;;;;;;;30.50;99.60;;;;;;5445046;26;20391;-85
2024/04/10 11:55:04;;;;;;;;;;;30.20;98.70;;;;;;5423904;26;19936;-84
2024/04/10 11:57:30;;;;;;;;;;;30.00;99.20;;;;;;5428099;26;19940;-85
2024/04/10 11:59:56;;;;;;;;;;;29.70;98.20;;;;;;5439048;26;19949;-85
2024/04/10 12:02:22;;;;;;;;;;;30.10;99.50;;;;;;5420920;26;19929;-86
2024/04/10 12:04:52;;;;;;;;;;;30.60;99.90;;;;;;5435883;26;19935;-85
2024/04/10 12:07:17;;;;;;;;;;;30.30;99.40;;;;;;5432169;26;19933;-84
2024/04/10 12:09:44;;;;;;;;;;;29.60;97.80;;;;;;5434345;26;19929;-85
2024/04/10 12:12:10;;;;;;;;;;;30.10;98.90;;;;;;5418379;26;19936;-85
2024/04/10 12:14:35;;;;;;;;;;;30.50;99.90;;;;;;5423121;26;19943;-84
2024/04/10 12:17:01;;;;;;;;;;;30.90;99.90;;;;;;5418819;26;19936;-86
2024/04/10 12:19:27;;;;;;;;;;;30.30;98.70;;;;;;5430147;26;20270;-86
2024/04/10 12:21:53;;;;;;;;;;;28.70;94.70;;;;;;5429888;26;19936;-86
2024/04/10 12:24:19;;;;;;;;;;;28.40;95.00;;;;;;5418165;26;20335;-85
2024/04/10 12:26:45;;;;;;;;;;;28.80;99.90;;;;;;5433801;26;19936;-85
2024/04/10 12:29:10;;;;;;;;;;;29.20;97.00;;;;;;5419033;26;19940;-86
2024/04/10 12:31:36;;;;;;;;;;;29.80;98.10;;;;;;5423146;26;20283;-85
2024/04/10 12:34:03;;;;;;;;;;;30.20;99.10;;;;;;5415474;26;19935;-84
2024/04/10 12:39:13;;;;;;;;;;;30.20;97.90;;;;;;5414401;26;26213;-86
2024/04/10 12:41:40;;;;;;;;;;;30.10;97.50;;;;;;5433440;26;19932;-86
2024/04/10 12:44:19;;;;;;;;;;;29.90;97.60;;;;;;5417644;26;20270;-85
2024/04/10 12:46:55;;;;;;;;;;;29.70;96.40;;;;;;5417564;26;19928;-85
2024/04/10 12:49:21;;;;;;;;;;;29.60;96.10;;;;;;5418575;26;19929;-86
2024/04/10 12:51:46;;;;;;;;;;;29.40;95.90;;;;;;5416383;26;19940;-85
2024/04/10 12:54:12;;;;;;;;;;;29.10;95.10;;;;;;5412824;26;19957;-84
2024/04/10 12:56:38;;;;;;;;;;;29.20;95.70;;;;;;5419551;26;19928;-86
2024/04/10 12:59:03;;;;;;;;;;;29.10;95.20;;;;;;5431631;26;19929;-85
2024/04/10 13:01:29;;;;;;;;;;;29.20;95.70;;;;;;5433669;26;20386;-84
2024/04/10 13:03:55;;;;;;;;;;;28.50;93.90;;;;;;5428478;26;19936;-84
2024/04/10 13:06:24;;;;;;;;;;;27.50;91.10;;;;;;5434899;26;19937;-85
2024/04/10 13:08:50;;;;;;;;;;;26.60;88.60;;;;;;5424903;26;19996;-85
2024/04/10 13:11:16;;;;;;;;;;;26.10;86.60;;;;;;5429938;26;19937;-85
2024/04/10 13:13:43;;;;;;;;;;;26.40;90.50;;;;;;5427752;26;19932;-85
2024/04/10 13:16:08;;;;;;;;;;;26.80;90.90;;;;;;5419521;26;19937;-84
2024/04/10 13:18:34;;;;;;;;;;;27.10;91.30;;;;;;5440260;26;20072;-83
2024/04/10 13:21:00;;;;;;;;;;;27.20;91.90;;;;;;5426423;26;20000;-86
2024/04/10 13:23:27;;;;;;;;;;;26.30;88.80;;;;;;5432261;26;19944;-85
2024/04/10 13:26:02;;;;;;;;;;;25.80;96.90;;;;;;5423077;26;19936;-85
2024/04/10 13:28:28;;;;;;;;;;;26.00;88.60;;;;;;5416325;26;20338;-82
2024/04/10 13:31:04;;;;;;;;;;;25.60;86.90;;;;;;5418618;26;19963;-84
2024/04/10 13:33:29;;;;;;;;;;;25.40;85.90;;;;;;5414825;26;22468;-85
2024/04/10 13:36:08;;;;;;;;;;;25.60;89.60;;;;;;5421786;26;19944;-84
2024/04/10 13:38:34;;;;;;;;;;;25.70;89.60;;;;;;5423832;26;19941;-83
2024/04/10 13:41:00;;;;;;;;;;;25.60;88.80;;;;;;5424277;26;19998;-84
2024/04/10 13:43:25;;;;;;;;;;;25.70;90.00;;;;;;5424862;26;19979;-84
2024/04/10 13:45:51;;;;;;;;;;;25.70;90.20;;;;;;5426093;26;19929;-85
2024/04/10 13:48:17;;;;;;;;;;;25.70;90.20;;;;;;5429526;26;19977;-84
2024/04/10 13:50:42;;;;;;;;;;;25.70;90.60;;;;;;5433098;26;20270;-84
2024/04/10 13:53:08;;;;;;;;;;;25.60;89.60;;;;;;5425829;26;19928;-84
2024/04/10 13:55:33;;;;;;;;;;;25.50;89.30;;;;;;5422800;26;19936;-84
2024/04/10 13:57:59;;;;;;;;;;;25.40;89.70;;;;;;5437232;26;19928;-86
2024/04/10 14:00:24;;;;;;;;;;;25.40;89.20;;;;;;5434376;26;19928;-82
2024/04/10 14:02:50;;;;;;;;;;;25.10;87.10;;;;;;5425384;26;19936;-83
2024/04/10 14:05:15;;;;;;;;;;;24.90;85.70;;;;;;5413142;26;19936;-84
2024/04/10 14:07:41;;;;;;;;;;;24.70;85.60;;;;;;5426939;26;19936;-81
2024/04/10 14:10:07;;;;;;;;;;;24.60;86.50;;;;;;5422624;26;20683;-82
2024/04/10 14:12:32;;;;;;;;;;;24.70;87.60;;;;;;5424023;26;19933;-84
2024/04/10 14:14:57;;;;;;;;;;;24.70;87.40;;;;;;5418798;26;19948;-83
2024/04/10 14:17:23;;;;;;;;;;;24.60;87.10;;;;;;5419097;26;19936;-83
2024/04/10 14:19:52;;;;;;;;;;;24.50;87.20;;;;;;5427406;26;20383;-85
2024/04/10 14:22:18;;;;;;;;;;;24.50;86.70;;;;;;5431429;26;19940;-85
2024/04/10 14:24:44;;;;;;;;;;;24.40;86.10;;;;;;5429212;26;20320;-85